Time;durP1;ratioP1;P1;durP2;ratioP2;P2;SDS_P1;SDS_P2;PMS_P1;PMS_P2;Temp;Humidity;BMP_temperature;BMP_pressure;BME280_temperature;BME280_humidity;BME280_pressure;Samples;Min_cycle;Max_cycle;Signal;HPM_P1;HPM_P2
2022/03/26 00:02:43;;;;;;;22.10;9.68;;;12.80;64.20;;;;;;10482815;28;20041;-66
2022/03/26 00:07:44;;;;;;;21.52;10.45;;;12.80;64.10;;;;;;10483993;28;20115;-66
2022/03/26 00:12:44;;;;;;;22.92;10.50;;;12.80;64.20;;;;;;10484681;28;20487;-67
2022/03/26 00:17:45;;;;;;;22.40;11.27;;;12.70;64.20;;;;;;10483369;28;20032;-65
2022/03/26 00:22:49;;;;;;;21.75;10.63;;;12.70;64.20;;;;;;10483568;28;20339;-67
2022/03/26 00:27:50;;;;;;;28.65;11.38;;;12.60;64.30;;;;;;10466695;28;20037;-66
2022/03/26 00:32:51;;;;;;;26.98;11.75;;;12.60;64.30;;;;;;10483379;28;20085;-66
2022/03/26 00:37:53;;;;;;;23.48;11.57;;;12.60;64.40;;;;;;10461404;28;20017;-66
2022/03/26 00:42:53;;;;;;;25.00;11.73;;;12.60;64.50;;;;;;10484395;28;20035;-66
2022/03/26 00:47:55;;;;;;;28.30;12.20;;;12.50;64.40;;;;;;10475789;28;20040;-65
2022/03/26 00:52:56;;;;;;;27.30;12.27;;;12.50;64.50;;;;;;10478937;28;20050;-66
2022/03/26 00:57:56;;;;;;;22.45;11.55;;;12.50;64.50;;;;;;10484161;28;20020;-66
2022/03/26 01:02:58;;;;;;;27.10;12.27;;;12.40;64.60;;;;;;10453073;28;20057;-66
2022/03/26 01:07:59;;;;;;;29.05;13.07;;;12.40;64.60;;;;;;10482098;28;20273;-67
2022/03/26 01:13:00;;;;;;;28.10;12.60;;;12.40;64.70;;;;;;10484533;28;20380;-66
2022/03/26 01:18:01;;;;;;;27.15;12.20;;;12.30;64.70;;;;;;10491204;28;20029;-65
2022/03/26 01:23:02;;;;;;;26.63;12.90;;;12.30;64.70;;;;;;10490744;28;20540;-66
2022/03/26 01:28:03;;;;;;;25.95;12.18;;;12.30;64.80;;;;;;10491924;28;20031;-66
2022/03/26 01:33:03;;;;;;;26.35;12.40;;;12.30;64.80;;;;;;10491115;28;20045;-66
2022/03/26 01:38:06;;;;;;;32.35;13.10;;;12.20;64.80;;;;;;10491556;28;20082;-66
2022/03/26 01:43:06;;;;;;;27.58;13.32;;;12.20;64.80;;;;;;10491836;28;20368;-67
2022/03/26 01:48:07;;;;;;;30.75;13.57;;;12.20;64.90;;;;;;10481423;28;20021;-65
2022/03/26 01:53:08;;;;;;;31.77;14.18;;;12.10;64.90;;;;;;10476975;28;20489;-67
2022/03/26 01:58:09;;;;;;;29.80;14.20;;;12.10;64.90;;;;;;10490980;28;20016;-65
2022/03/26 02:03:10;;;;;;;36.10;14.77;;;12.10;65.00;;;;;;10490748;28;20052;-67
2022/03/26 02:08:10;;;;;;;32.78;13.63;;;12.00;65.00;;;;;;10490206;28;20071;-67
2022/03/26 02:13:11;;;;;;;30.27;15.25;;;12.00;65.10;;;;;;10490656;28;20494;-65
2022/03/26 02:18:12;;;;;;;31.77;14.50;;;12.00;65.10;;;;;;10489696;28;20451;-67
2022/03/26 02:23:13;;;;;;;30.25;13.95;;;12.00;65.10;;;;;;10495751;28;20439;-67
2022/03/26 02:28:14;;;;;;;35.22;14.30;;;11.90;65.20;;;;;;10495663;28;20020;-66
2022/03/26 02:33:15;;;;;;;30.63;14.10;;;11.90;65.20;;;;;;10488482;28;20560;-67
2022/03/26 02:38:16;;;;;;;31.23;14.55;;;11.90;65.20;;;;;;10469805;28;20020;-66
2022/03/26 02:43:17;;;;;;;33.63;14.93;;;11.90;65.30;;;;;;10489030;28;20027;-67
2022/03/26 02:48:18;;;;;;;34.58;15.65;;;11.80;65.30;;;;;;10469370;28;20033;-65
2022/03/26 02:53:19;;;;;;;36.10;15.88;;;11.80;65.30;;;;;;10486812;28;20041;-67
2022/03/26 02:58:20;;;;;;;32.40;14.30;;;11.80;65.40;;;;;;10486204;28;20051;-66
2022/03/26 03:03:21;;;;;;;32.53;15.25;;;11.70;65.40;;;;;;10489464;28;20045;-65
2022/03/26 03:08:22;;;;;;;34.97;15.43;;;11.70;65.50;;;;;;10486105;28;20032;-68
2022/03/26 03:13:23;;;;;;;36.53;16.13;;;11.70;65.60;;;;;;10470495;28;20043;-65
2022/03/26 03:18:24;;;;;;;35.17;15.07;;;11.70;65.50;;;;;;10486267;28;20036;-67
2022/03/26 03:23:25;;;;;;;36.67;16.25;;;11.60;65.60;;;;;;10486409;28;20204;-66
2022/03/26 03:28:26;;;;;;;36.40;15.20;;;11.60;65.60;;;;;;10487903;28;20032;-66
2022/03/26 03:33:26;;;;;;;39.63;16.52;;;11.60;65.70;;;;;;10485759;28;20036;-68
2022/03/26 03:38:27;;;;;;;38.75;17.27;;;11.50;65.70;;;;;;10486452;28;20028;-66
2022/03/26 03:43:28;;;;;;;39.75;16.77;;;11.50;65.70;;;;;;10486354;28;20029;-67
2022/03/26 03:48:29;;;;;;;37.25;14.98;;;11.50;65.80;;;;;;10473874;28;20491;-67
2022/03/26 03:53:29;;;;;;;38.10;17.70;;;11.50;65.80;;;;;;10467161;28;20499;-66
2022/03/26 03:58:30;;;;;;;43.85;17.98;;;11.40;65.80;;;;;;10483921;28;20036;-66
2022/03/26 04:03:31;;;;;;;44.67;16.83;;;11.40;65.80;;;;;;10469004;28;20157;-67
2022/03/26 04:08:32;;;;;;;43.30;18.75;;;11.40;65.90;;;;;;10485880;28;20025;-65
2022/03/26 04:13:32;;;;;;;41.85;18.90;;;11.40;65.90;;;;;;10487713;28;20048;-66
2022/03/26 04:18:34;;;;;;;43.78;19.25;;;11.30;65.90;;;;;;10487009;28;20028;-67
2022/03/26 04:23:34;;;;;;;41.05;17.67;;;11.30;66.00;;;;;;10471867;28;20021;-67
2022/03/26 04:28:35;;;;;;;45.28;17.95;;;11.30;66.00;;;;;;10485419;28;20021;-65
2022/03/26 04:33:36;;;;;;;37.72;16.20;;;11.30;66.10;;;;;;10484332;28;20556;-66
2022/03/26 04:38:37;;;;;;;38.53;17.08;;;11.20;66.10;;;;;;10485296;28;20078;-66
2022/03/26 04:43:38;;;;;;;42.88;18.23;;;11.20;66.10;;;;;;10484725;28;20032;-66
2022/03/26 04:48:39;;;;;;;37.25;17.60;;;11.20;66.20;;;;;;10472659;28;20656;-67
2022/03/26 04:53:39;;;;;;;39.17;17.48;;;11.20;66.20;;;;;;10481722;28;20036;-67
2022/03/26 04:58:40;;;;;;;37.88;16.98;;;11.10;66.20;;;;;;10483482;28;20017;-67
2022/03/26 05:03:44;;;;;;;37.63;16.08;;;11.10;66.30;;;;;;10484331;28;20530;-67
2022/03/26 05:08:45;;;;;;;39.47;16.60;;;11.10;66.30;;;;;;10483276;28;20735;-67
2022/03/26 05:13:46;;;;;;;36.05;15.13;;;11.10;66.30;;;;;;10484096;28;20037;-66
2022/03/26 05:18:46;;;;;;;39.35;17.58;;;11.00;66.30;;;;;;10464786;28;20105;-66
2022/03/26 05:23:47;;;;;;;40.80;16.10;;;11.00;66.30;;;;;;10470509;28;20058;-65
2022/03/26 05:28:48;;;;;;;40.10;16.58;;;11.00;66.40;;;;;;10483702;28;20036;-65
2022/03/26 05:33:49;;;;;;;40.83;16.65;;;11.00;66.40;;;;;;10482570;28;20131;-66
2022/03/26 05:38:49;;;;;;;38.75;16.80;;;11.00;66.40;;;;;;10483295;28;20514;-67
2022/03/26 05:43:50;;;;;;;35.25;14.95;;;10.90;66.40;;;;;;10483211;28;20032;-65
2022/03/26 05:48:51;;;;;;;40.13;16.38;;;10.90;66.40;;;;;;10471261;28;20475;-66
2022/03/26 05:53:51;;;;;;;37.95;16.55;;;10.90;66.40;;;;;;10481330;28;20139;-66
2022/03/26 05:58:52;;;;;;;36.15;16.52;;;10.90;66.50;;;;;;10481950;28;20098;-66
2022/03/26 06:03:53;;;;;;;37.47;16.05;;;10.90;66.40;;;;;;10490553;28;20498;-66
2022/03/26 06:08:54;;;;;;;39.63;16.77;;;10.70;66.40;;;;;;10488470;28;20021;-67
2022/03/26 06:13:55;;;;;;;41.47;17.13;;;10.90;66.50;;;;;;10490178;28;20043;-67
2022/03/26 06:18:55;;;;;;;46.85;18.60;;;10.80;66.50;;;;;;10488378;28;20029;-65
2022/03/26 06:24:00;;;;;;;40.80;18.45;;;10.80;66.50;;;;;;10476037;28;20376;-67
2022/03/26 06:29:00;;;;;;;47.35;19.17;;;10.80;66.50;;;;;;10484031;28;20037;-66
2022/03/26 06:34:02;;;;;;;45.35;18.17;;;10.80;66.50;;;;;;10481918;28;20394;-67
2022/03/26 06:39:07;;;;;;;45.47;19.23;;;10.80;66.50;;;;;;10482118;28;20115;-66
2022/03/26 06:44:09;;;;;;;48.42;19.98;;;10.80;66.50;;;;;;10489021;28;20035;-67
2022/03/26 06:49:10;;;;;;;50.58;21.15;;;10.80;66.50;;;;;;10472714;28;20033;-65
2022/03/26 06:54:11;;;;;;;53.20;21.45;;;10.80;66.60;;;;;;10486063;28;20033;-67
2022/03/26 06:59:12;;;;;;;51.80;20.75;;;10.90;66.90;;;;;;10456550;28;20021;-66
2022/03/26 07:04:13;;;;;;;54.83;22.77;;;10.90;66.70;;;;;;10477762;28;20060;-66
2022/03/26 07:09:14;;;;;;;57.13;23.45;;;12.10;67.60;;;;;;10467232;28;20021;-67
2022/03/26 07:14:14;;;;;;;61.83;24.40;;;10.90;66.70;;;;;;10486898;28;20036;-67
2022/03/26 07:19:15;;;;;;;70.30;27.40;;;11.00;66.80;;;;;;10487128;28;20038;-67
2022/03/26 07:24:16;;;;;;;66.72;25.88;;;11.10;66.80;;;;;;10480133;28;20060;-66
2022/03/26 07:29:17;;;;;;;63.13;24.90;;;11.10;66.80;;;;;;10481249;28;20027;-65
2022/03/26 07:34:18;;;;;;;60.15;25.00;;;11.20;66.80;;;;;;10486665;28;20586;-66
2022/03/26 07:39:22;;;;;;;60.22;25.67;;;11.30;66.80;;;;;;10469515;28;20029;-64
2022/03/26 07:44:23;;;;;;;63.63;25.15;;;11.40;66.70;;;;;;10486651;28;20040;-64
2022/03/26 07:49:24;;;;;;;65.43;24.42;;;11.50;66.70;;;;;;10468811;28;20073;-66
2022/03/26 07:54:25;;;;;;;61.20;23.80;;;11.60;66.60;;;;;;10490591;28;20031;-67
2022/03/26 07:59:25;;;;;;;64.10;25.52;;;11.70;66.50;;;;;;10484494;28;20418;-67
2022/03/26 08:04:26;;;;;;;61.28;25.13;;;11.80;66.40;;;;;;10475907;28;20392;-66
2022/03/26 08:09:27;;;;;;;62.38;24.77;;;11.80;66.30;;;;;;10483318;28;20406;-64
2022/03/26 08:14:28;;;;;;;57.22;23.30;;;11.90;66.30;;;;;;10481979;28;20131;-62
2022/03/26 08:19:29;;;;;;;57.25;22.73;;;12.00;66.40;;;;;;10476553;28;20089;-71
2022/03/26 08:24:29;;;;;;;61.25;25.02;;;12.10;66.30;;;;;;10461182;28;20145;-69
2022/03/26 08:29:30;;;;;;;57.25;22.88;;;12.10;66.30;;;;;;10481852;28;20076;-68
2022/03/26 08:34:31;;;;;;;53.67;21.55;;;12.10;66.40;;;;;;10473665;28;20089;-63
2022/03/26 08:39:32;;;;;;;51.33;22.23;;;12.10;66.40;;;;;;10483748;28;20104;-63
2022/03/26 08:44:32;;;;;;;56.78;20.50;;;12.10;66.40;;;;;;10481511;28;20028;-69
2022/03/26 08:49:33;;;;;;;55.92;21.63;;;12.10;67.50;;;;;;10476484;28;20021;-66
2022/03/26 08:54:34;;;;;;;54.97;20.70;;;12.10;67.40;;;;;;10468180;28;20045;-72
2022/03/26 08:59:35;;;;;;;47.88;20.63;;;12.20;67.30;;;;;;10481309;28;20024;-72
2022/03/26 09:04:35;;;;;;;54.90;19.77;;;12.20;67.30;;;;;;10461351;28;20693;-66
2022/03/26 09:09:36;;;;;;;51.53;20.27;;;12.30;67.40;;;;;;10482921;28;20028;-67
2022/03/26 09:14:37;;;;;;;51.92;20.35;;;12.30;67.30;;;;;;10484564;28;20060;-66
2022/03/26 09:19:37;;;;;;;50.80;19.40;;;12.30;67.30;;;;;;10482602;28;20359;-66
2022/03/26 09:24:38;;;;;;;50.75;18.70;;;12.40;67.30;;;;;;10483418;28;20033;-68
2022/03/26 09:29:39;;;;;;;44.38;17.00;;;12.50;67.30;;;;;;10482475;28;20686;-66
2022/03/26 09:34:40;;;;;;;44.58;17.90;;;12.50;67.30;;;;;;10484586;28;20048;-66
2022/03/26 09:39:41;;;;;;;49.90;17.15;;;12.60;67.30;;;;;;10491605;28;20021;-64
2022/03/26 09:44:42;;;;;;;44.75;17.95;;;12.60;67.30;;;;;;10491527;28;20078;-67
2022/03/26 09:49:43;;;;;;;36.28;14.73;;;12.70;67.30;;;;;;10491484;28;20021;-66
2022/03/26 09:54:44;;;;;;;41.55;15.48;;;12.70;67.20;;;;;;10488591;28;20043;-66
2022/03/26 09:59:45;;;;;;;38.53;14.95;;;12.80;67.20;;;;;;10489228;28;20486;-66
2022/03/26 10:04:46;;;;;;;40.75;15.20;;;12.90;67.80;;;;;;10488691;28;20663;-66
2022/03/26 10:09:47;;;;;;;40.00;15.50;;;12.90;67.20;;;;;;10491210;28;20021;-66
2022/03/26 10:14:59;;;;;;;39.72;15.65;;;13.00;67.20;;;;;;10490789;28;20056;-66
2022/03/26 10:20:05;;;;;;;35.85;15.13;;;13.10;67.20;;;;;;10488955;28;20029;-66
2022/03/26 10:25:08;;;;;;;34.95;13.45;;;13.10;67.10;;;;;;10462380;28;20479;-65
2022/03/26 10:30:11;;;;;;;37.03;13.30;;;13.20;67.20;;;;;;10485452;28;20025;-65
2022/03/26 10:35:27;;;;;;;32.50;12.70;;;13.30;67.10;;;;;;10476704;28;20047;-65
2022/03/26 10:40:33;;;;;;;31.60;13.02;;;13.40;67.10;;;;;;10489115;28;20025;-66
2022/03/26 10:45:37;;;;;;;29.77;12.32;;;13.40;67.10;;;;;;10477272;28;20113;-66
2022/03/26 10:50:38;;;;;;;26.98;11.35;;;13.50;67.20;;;;;;10485925;28;20029;-66
2022/03/26 10:55:40;;;;;;;31.23;12.40;;;13.60;67.20;;;;;;10485875;28;20040;-66
2022/03/26 11:00:43;;;;;;;28.58;11.25;;;13.70;67.30;;;;;;10488498;28;20387;-63
2022/03/26 11:05:44;;;;;;;25.30;10.80;;;13.70;67.30;;;;;;10487184;28;20045;-66
2022/03/26 11:10:45;;;;;;;27.55;10.68;;;13.80;67.40;;;;;;10487055;28;20032;-66
2022/03/26 11:15:49;;;;;;;22.42;10.23;;;13.90;67.50;;;;;;10456778;28;20041;-66
2022/03/26 11:21:27;;;;;;;22.10;10.10;;;13.90;67.60;;;;;;10485798;28;20120;-67
2022/03/26 11:26:36;;;;;;;24.20;10.70;;;14.00;68.10;;;;;;10484161;28;20024;-67
2022/03/26 11:31:50;;;;;;;22.35;10.25;;;14.10;67.90;;;;;;10481781;28;20045;-66
2022/03/26 11:36:51;;;;;;;20.33;9.30;;;14.20;68.10;;;;;;10483659;28;20121;-66
2022/03/26 11:41:53;;;;;;;18.83;8.85;;;14.30;68.00;;;;;;10488058;28;20382;-65
2022/03/26 11:52:21;;;;;;;16.95;8.55;;;14.40;68.10;;;;;;10486079;28;20398;-65
2022/03/26 11:57:23;;;;;;;;;;;14.50;68.30;;;;;;10488940;28;20496;-64
2022/03/26 12:02:38;;;;;;;17.98;8.52;;;14.60;69.30;;;;;;10485260;28;19920;-66
2022/03/26 12:07:38;;;;;;;15.65;8.10;;;14.70;69.10;;;;;;10469055;28;20037;-67
2022/03/26 12:12:50;;;;;;;20.77;9.30;;;14.70;68.30;;;;;;10474474;28;20030;-66
2022/03/26 12:18:05;;;;;;;14.75;8.02;;;14.80;68.80;;;;;;10478265;28;20060;-66
2022/03/26 12:23:16;;;;;;;13.73;7.53;;;14.90;68.70;;;;;;10455288;28;20052;-66
2022/03/26 12:28:26;;;;;;;17.30;7.95;;;15.00;69.00;;;;;;10484964;28;20715;-67
2022/03/26 12:33:27;;;;;;;15.05;6.93;;;15.00;69.20;;;;;;10483007;28;20066;-67
2022/03/26 12:38:37;;;;;;;12.55;7.40;;;15.10;69.00;;;;;;10484523;28;20124;-67
2022/03/26 12:43:40;;;;;;;15.20;6.78;;;15.10;69.50;;;;;;10484076;28;20032;-64
2022/03/26 12:48:42;;;;;;;14.00;7.13;;;15.20;69.30;;;;;;10483858;28;20037;-64
2022/03/26 12:53:45;;;;;;;12.43;6.47;;;15.20;69.40;;;;;;10472925;28;20043;-67
2022/03/26 12:58:59;;;;;;;12.25;6.40;;;15.30;69.50;;;;;;10481417;28;20514;-66
2022/03/26 13:04:00;;;;;;;11.98;5.95;;;15.30;69.60;;;;;;10483568;28;20157;-69
2022/03/26 13:09:02;;;;;;;11.77;5.68;;;15.40;69.80;;;;;;10483186;28;20406;-67
2022/03/26 13:14:05;;;;;;;8.63;5.32;;;15.50;69.80;;;;;;10490562;28;20144;-64
2022/03/26 13:19:08;;;;;;;11.48;5.07;;;15.60;69.90;;;;;;10490379;28;20378;-66
2022/03/26 13:24:10;;;;;;;11.85;5.07;;;15.50;70.00;;;;;;10490129;28;20385;-65
2022/03/26 13:29:15;;;;;;;7.63;4.68;;;15.50;70.20;;;;;;10487853;28;20411;-66
2022/03/26 13:34:18;;;;;;;7.65;4.90;;;15.60;70.60;;;;;;10492688;28;20055;-64
2022/03/26 13:39:29;;;;;;;8.38;4.47;;;15.60;70.60;;;;;;10491099;28;20070;-64
2022/03/26 13:44:30;;;;;;;7.53;4.30;;;15.70;70.90;;;;;;10491135;28;20115;-64
2022/03/26 13:49:34;;;;;;;8.88;4.50;;;15.70;70.60;;;;;;10490472;28;20021;-65
2022/03/26 13:54:35;;;;;;;8.23;4.13;;;15.80;70.70;;;;;;10488078;28;20075;-64
2022/03/26 13:59:37;;;;;;;6.68;4.35;;;15.90;70.70;;;;;;10490679;28;20021;-68
2022/03/26 14:04:38;;;;;;;6.10;4.18;;;16.00;70.70;;;;;;10489714;28;20088;-66
2022/03/26 14:09:38;;;;;;;7.32;3.78;;;16.10;70.80;;;;;;10491412;28;20056;-68
2022/03/26 14:14:39;;;;;;;7.28;3.78;;;16.20;70.70;;;;;;10473759;28;20037;-68
2022/03/26 14:19:40;;;;;;;7.55;3.97;;;16.30;70.70;;;;;;10490521;28;20029;-67
2022/03/26 14:24:40;;;;;;;6.40;3.55;;;16.40;70.90;;;;;;10472833;28;20051;-68
2022/03/26 14:29:41;;;;;;;5.60;3.53;;;16.50;71.00;;;;;;10490352;28;20020;-67
2022/03/26 14:34:42;;;;;;;6.95;3.92;;;16.60;71.10;;;;;;10490425;28;20035;-67
2022/03/26 14:39:42;;;;;;;6.53;3.30;;;16.70;71.10;;;;;;10488073;28;20393;-66
2022/03/26 14:44:43;;;;;;;5.25;3.17;;;16.70;71.10;;;;;;10489208;28;20039;-64
2022/03/26 14:49:44;;;;;;;4.68;3.10;;;16.90;71.20;;;;;;10489897;28;20029;-68
2022/03/26 14:54:45;;;;;;;5.60;3.55;;;17.00;71.10;;;;;;10453364;28;20379;-68
2022/03/26 14:59:48;;;;;;;8.23;3.15;;;17.10;71.00;;;;;;10487114;28;20420;-67
2022/03/26 15:04:49;;;;;;;4.90;3.30;;;17.20;70.90;;;;;;10473012;28;20080;-68
2022/03/26 15:09:49;;;;;;;8.10;4.07;;;17.30;70.60;;;;;;10487084;28;20404;-72
2022/03/26 15:14:51;;;;;;;7.22;4.00;;;17.40;69.40;;;;;;10458408;28;20131;-66
2022/03/26 15:19:52;;;;;;;8.88;4.40;;;17.40;68.30;;;;;;10453087;28;20029;-72
2022/03/26 15:24:52;;;;;;;8.10;4.15;;;17.20;68.10;;;;;;10453201;28;20359;-74
2022/03/26 15:29:53;;;;;;;6.70;3.95;;;16.80;68.20;;;;;;10455801;28;20032;-71
2022/03/26 15:34:54;;;;;;;6.05;3.70;;;16.50;68.80;;;;;;10483767;28;20517;-73
2022/03/26 15:39:55;;;;;;;6.00;3.53;;;16.30;69.20;;;;;;10482511;28;20033;-69
2022/03/26 15:44:56;;;;;;;6.15;3.00;;;16.20;69.40;;;;;;10484831;28;20060;-72
2022/03/26 15:49:57;;;;;;;5.75;2.78;;;16.10;69.30;;;;;;10484894;28;20371;-72
2022/03/26 15:54:58;;;;;;;8.90;2.33;;;16.10;69.10;;;;;;10483891;28;20136;-71
2022/03/26 15:59:58;;;;;;;3.83;2.05;;;16.00;69.50;;;;;;10481832;28;20074;-71
2022/03/26 16:04:59;;;;;;;3.67;1.92;;;15.80;69.70;;;;;;10484134;28;20067;-70
2022/03/26 16:10:00;;;;;;;6.10;2.05;;;15.60;70.30;;;;;;10485496;28;20033;-71
2022/03/26 16:15:01;;;;;;;4.03;2.42;;;15.50;70.90;;;;;;10477293;28;20048;-70
2022/03/26 16:20:02;;;;;;;4.65;1.95;;;15.50;71.40;;;;;;10479230;28;20067;-72
2022/03/26 16:25:03;;;;;;;6.75;2.60;;;15.40;71.70;;;;;;10485305;28;20036;-64
2022/03/26 16:30:06;;;;;;;6.80;2.35;;;15.40;72.10;;;;;;10484476;28;20033;-66
2022/03/26 16:35:09;;;;;;;6.20;2.78;;;15.30;72.30;;;;;;10486240;28;20072;-68
2022/03/26 16:40:11;;;;;;;6.97;3.13;;;15.30;72.70;;;;;;10484296;28;20545;-66
2022/03/26 16:45:12;;;;;;;4.97;2.33;;;15.30;72.40;;;;;;10485464;28;20043;-67
2022/03/26 16:50:13;;;;;;;6.90;2.75;;;15.20;72.70;;;;;;10453667;28;20048;-64
2022/03/26 16:55:14;;;;;;;5.40;2.75;;;15.10;73.20;;;;;;10482027;28;20534;-67
2022/03/26 17:00:15;;;;;;;12.00;3.55;;;14.90;73.50;;;;;;10483928;28;20050;-66
2022/03/26 17:05:16;;;;;;;6.15;2.70;;;14.90;74.00;;;;;;10478467;28;20065;-64
2022/03/26 17:10:17;;;;;;;7.75;2.70;;;15.00;73.80;;;;;;10477101;28;20444;-65
2022/03/26 17:15:18;;;;;;;8.45;3.15;;;15.20;73.60;;;;;;10484784;28;20032;-68
2022/03/26 17:20:20;;;;;;;5.03;2.20;;;15.40;73.70;;;;;;10483853;28;20267;-66
2022/03/26 17:25:21;;;;;;;5.35;2.63;;;15.50;73.80;;;;;;10483277;28;20032;-66
2022/03/26 17:30:22;;;;;;;5.28;2.45;;;15.60;73.80;;;;;;10476795;28;20557;-71
2022/03/26 17:35:22;;;;;;;5.80;2.58;;;15.70;73.80;;;;;;10462155;28;20061;-65
2022/03/26 17:40:24;;;;;;;4.82;2.63;;;15.60;73.90;;;;;;10474827;28;20035;-65
2022/03/26 17:45:25;;;;;;;5.22;2.53;;;15.60;74.30;;;;;;10476057;28;20017;-67
2022/03/26 17:50:26;;;;;;;6.70;2.13;;;15.50;74.40;;;;;;10458447;28;20028;-72
2022/03/26 17:55:27;;;;;;;5.20;2.17;;;15.40;75.00;;;;;;10461382;28;20125;-62
2022/03/26 18:00:27;;;;;;;5.75;2.17;;;15.30;75.20;;;;;;10479113;28;20021;-64
2022/03/26 18:05:28;;;;;;;4.32;1.95;;;15.30;75.30;;;;;;10452852;28;20044;-61
2022/03/26 18:10:29;;;;;;;3.53;1.92;;;15.40;75.30;;;;;;10439975;28;20583;-69
2022/03/26 18:15:30;;;;;;;3.83;2.00;;;15.40;75.30;;;;;;10474213;28;20105;-68
2022/03/26 18:20:31;;;;;;;4.38;2.10;;;15.40;75.20;;;;;;10456596;28;20460;-72
2022/03/26 18:25:32;;;;;;;4.38;2.00;;;15.40;75.30;;;;;;10481092;28;20087;-65
2022/03/26 18:30:33;;;;;;;2.78;1.67;;;15.40;75.30;;;;;;10481913;28;20192;-65
2022/03/26 18:35:33;;;;;;;5.70;2.00;;;15.40;75.40;;;;;;10487367;28;20036;-71
2022/03/26 18:40:35;;;;;;;3.95;1.88;;;15.40;75.40;;;;;;10468870;28;20041;-71
2022/03/26 18:45:35;;;;;;;4.07;1.77;;;15.40;75.50;;;;;;10482418;28;20726;-65
2022/03/26 18:50:36;;;;;;;16.38;4.00;;;15.40;75.50;;;;;;10483607;28;20016;-67
2022/03/26 18:55:37;;;;;;;9.52;2.70;;;15.20;75.80;;;;;;10480748;28;20055;-64
2022/03/26 19:00:41;;;;;;;8.68;2.22;;;15.20;76.60;;;;;;10465354;28;20461;-64
2022/03/26 19:05:43;;;;;;;7.50;2.40;;;15.20;76.50;;;;;;10479401;28;20061;-68
2022/03/26 19:10:48;;;;;;;4.18;2.50;;;15.20;77.00;;;;;;10473642;28;20459;-65
2022/03/26 19:15:49;;;;;;;5.53;2.60;;;15.30;76.80;;;;;;10475047;28;20044;-64
2022/03/26 19:20:50;;;;;;;7.53;2.45;;;15.30;76.60;;;;;;10470952;28;20031;-60
2022/03/26 19:25:51;;;;;;;7.18;2.90;;;15.20;76.60;;;;;;10476195;28;20047;-59
2022/03/26 19:30:51;;;;;;;4.85;2.67;;;15.20;76.60;;;;;;10469641;28;20517;-63
2022/03/26 19:35:52;;;;;;;3.33;2.15;;;15.20;76.70;;;;;;10472282;28;20079;-63
2022/03/26 19:40:53;;;;;;;3.33;2.50;;;15.10;76.80;;;;;;10456450;28;20033;-65
2022/03/26 19:45:54;;;;;;;5.72;2.33;;;15.10;76.80;;;;;;10456232;28;20017;-66
2022/03/26 19:50:54;;;;;;;9.38;2.65;;;15.00;76.70;;;;;;10461261;28;20024;-64
2022/03/26 19:55:56;;;;;;;9.20;2.50;;;15.00;76.80;;;;;;10460925;28;20108;-61
2022/03/26 20:00:58;;;;;;;7.63;2.83;;;15.00;76.80;;;;;;10465160;28;20025;-64
2022/03/26 20:05:59;;;;;;;4.20;2.28;;;15.00;76.70;;;;;;10468756;28;20052;-66
2022/03/26 20:11:00;;;;;;;3.05;2.22;;;14.90;76.70;;;;;;10446521;28;20043;-66
2022/03/26 20:21:21;;;;;;;4.68;2.28;;;14.90;76.90;;;;;;10470400;28;20025;-62
2022/03/26 20:26:21;;;;;;;4.00;2.38;;;14.80;76.80;;;;;;10473817;28;20024;-62
2022/03/26 20:31:22;;;;;;;3.38;2.17;;;14.80;76.80;;;;;;10475890;28;20119;-64
2022/03/26 20:36:24;;;;;;;4.07;2.45;;;14.70;76.90;;;;;;10474458;28;20041;-64
2022/03/26 20:41:25;;;;;;;4.13;2.30;;;14.70;76.90;;;;;;10469126;28;20104;-61
2022/03/26 20:46:26;;;;;;;3.58;2.53;;;14.70;77.00;;;;;;10475379;28;20546;-62
2022/03/26 20:51:27;;;;;;;4.28;2.40;;;14.60;77.00;;;;;;10478783;28;20025;-64
2022/03/26 20:56:27;;;;;;;3.22;2.28;;;14.60;77.10;;;;;;10475304;28;20036;-63
2022/03/26 21:01:29;;;;;;;3.88;2.67;;;14.60;77.10;;;;;;10468220;28;20013;-66
2022/03/26 21:06:29;;;;;;;5.00;2.22;;;14.50;77.00;;;;;;10468016;28;20129;-65
2022/03/26 21:11:30;;;;;;;3.65;2.40;;;14.50;77.10;;;;;;10479164;28;20029;-63
2022/03/26 21:16:31;;;;;;;4.60;2.55;;;14.50;77.10;;;;;;10481176;28;20094;-63
2022/03/26 21:21:32;;;;;;;4.75;2.88;;;14.40;77.00;;;;;;10465465;28;20085;-63
2022/03/26 21:26:33;;;;;;;4.20;2.60;;;14.40;77.00;;;;;;10466440;28;20123;-63
2022/03/26 21:31:33;;;;;;;4.25;2.80;;;14.40;77.00;;;;;;10471872;28;20508;-63
2022/03/26 21:36:34;;;;;;;3.85;2.72;;;14.30;77.00;;;;;;10474046;28;20229;-64
2022/03/26 21:41:35;;;;;;;5.95;3.10;;;14.30;77.10;;;;;;10484344;28;20031;-65
2022/03/26 21:46:36;;;;;;;4.93;2.65;;;14.30;77.10;;;;;;10485718;28;20506;-64
2022/03/26 21:51:37;;;;;;;6.00;2.80;;;14.20;77.10;;;;;;10479720;28;20491;-63
2022/03/26 21:56:38;;;;;;;7.05;3.20;;;14.20;77.10;;;;;;10485455;28;20320;-64
2022/03/26 22:01:39;;;;;;;5.82;2.72;;;14.20;77.10;;;;;;10464143;28;20032;-65
2022/03/26 22:06:39;;;;;;;7.03;3.05;;;14.10;77.00;;;;;;10482572;28;20078;-64
2022/03/26 22:11:40;;;;;;;5.45;3.25;;;14.10;77.10;;;;;;10477726;28;20025;-65
2022/03/26 22:16:41;;;;;;;6.47;3.10;;;14.10;77.60;;;;;;10483854;28;20028;-65
2022/03/26 22:21:43;;;;;;;6.47;3.60;;;14.00;77.00;;;;;;10479022;28;20059;-63
2022/03/26 22:26:44;;;;;;;6.45;3.53;;;14.00;77.00;;;;;;10463687;28;20067;-65
2022/03/26 22:31:45;;;;;;;5.68;3.45;;;14.00;77.10;;;;;;10478684;28;20500;-63
2022/03/26 22:36:46;;;;;;;5.50;3.10;;;14.00;77.10;;;;;;10478509;28;20094;-60
2022/03/26 22:41:48;;;;;;;4.90;2.95;;;13.90;77.10;;;;;;10473188;28;20455;-64
2022/03/26 22:46:49;;;;;;;5.15;3.10;;;13.90;77.10;;;;;;10462083;28;20762;-64
2022/03/26 22:51:50;;;;;;;4.53;3.03;;;13.90;77.10;;;;;;10475862;28;20023;-61
2022/03/26 22:56:50;;;;;;;4.43;2.95;;;13.80;77.10;;;;;;10482119;28;20059;-61
2022/03/26 23:02:01;;;;;;;5.40;2.92;;;13.80;77.10;;;;;;10478362;28;20040;-62
2022/03/26 23:07:02;;;;;;;6.05;3.00;;;13.80;77.10;;;;;;10479002;28;20099;-62
2022/03/26 23:12:03;;;;;;;4.78;3.17;;;13.80;77.00;;;;;;10487686;28;20040;-63
2022/03/26 23:17:03;;;;;;;4.57;2.95;;;13.70;77.00;;;;;;10481519;28;20028;-62
2022/03/26 23:22:04;;;;;;;2.85;2.25;;;13.70;77.00;;;;;;10478172;28;20020;-63
2022/03/26 23:27:05;;;;;;;4.00;2.60;;;13.70;77.00;;;;;;10481265;28;20036;-62
2022/03/26 23:32:10;;;;;;;4.00;2.22;;;13.70;77.00;;;;;;10486690;28;20033;-62
2022/03/26 23:37:10;;;;;;;4.18;2.50;;;13.60;76.90;;;;;;10486459;28;20029;-63
2022/03/26 23:42:11;;;;;;;3.45;2.20;;;13.60;76.90;;;;;;10485357;28;20040;-61
2022/03/26 23:47:12;;;;;;;3.63;2.10;;;13.60;76.90;;;;;;10485949;28;20028;-63
2022/03/26 23:52:13;;;;;;;3.47;2.70;;;13.60;77.00;;;;;;10479027;28;20029;-61
2022/03/26 23:57:14;;;;;;;3.58;2.40;;;13.50;76.90;;;;;;10485883;28;20059;-64
